Time;durP1;ratioP1;P1;durP2;ratioP2;P2;SDS_P1;SDS_P2;PMS_P1;PMS_P2;Temp;Humidity;BMP_temperature;BMP_pressure;BME280_temperature;BME280_humidity;BME280_pressure;Samples;Min_cycle;Max_cycle;Signal;HPM_P1;HPM_P2
2022/07/27 00:02:24;;;;;;;5.28;1.10;;;;;;;;;;4994551;28;20086;-65
2022/07/27 00:04:50;;;;;;;6.35;1.10;;;;;;;;;;4994059;28;20042;-65
2022/07/27 00:07:16;;;;;;;4.55;0.95;;;;;;;;;;4994459;28;20038;-65
2022/07/27 00:09:42;;;;;;;3.30;1.30;;;;;;;;;;4994314;28;20092;-65
2022/07/27 00:12:08;;;;;;;1.83;0.98;;;;;;;;;;4994056;28;20042;-65
2022/07/27 00:14:34;;;;;;;6.03;1.48;;;;;;;;;;4994412;28;20074;-65
2022/07/27 00:17:00;;;;;;;4.20;1.15;;;;;;;;;;4994262;28;20085;-65
2022/07/27 00:19:26;;;;;;;2.72;1.13;;;;;;;;;;4994032;28;20042;-65
2022/07/27 00:21:53;;;;;;;4.95;1.23;;;;;;;;;;4994291;28;20045;-65
2022/07/27 00:24:19;;;;;;;4.82;1.10;;;;;;;;;;4994027;28;20046;-65
2022/07/27 00:26:45;;;;;;;4.50;1.20;;;;;;;;;;4993347;28;20038;-65
2022/07/27 00:29:11;;;;;;;2.80;1.02;;;;;;;;;;4994134;28;20034;-65
2022/07/27 00:31:37;;;;;;;4.90;1.30;;;;;;;;;;4976412;28;20085;-65
2022/07/27 00:34:03;;;;;;;3.10;1.10;;;;;;;;;;4993541;28;20505;-65
2022/07/27 00:36:29;;;;;;;4.05;1.30;;;;;;;;;;4994021;28;20077;-65
2022/07/27 00:38:55;;;;;;;4.38;1.30;;;;;;;;;;4993724;28;20042;-64
2022/07/27 00:41:21;;;;;;;5.55;1.83;;;;;;;;;;4993466;28;20089;-64
2022/07/27 00:43:55;;;;;;;2.92;1.27;;;;;;;;;;4993880;28;20092;-65
2022/07/27 00:46:21;;;;;;;4.40;1.60;;;;;;;;;;4993354;28;20057;-64
2022/07/27 00:48:47;;;;;;;6.05;1.30;;;;;;;;;;4993376;28;20108;-65
2022/07/27 00:51:14;;;;;;;8.35;1.40;;;;;;;;;;4992746;28;20042;-65
2022/07/27 00:53:40;;;;;;;3.45;1.13;;;;;;;;;;4993702;28;20042;-65
2022/07/27 00:56:06;;;;;;;4.97;1.55;;;;;;;;;;4993089;28;20050;-65
2022/07/27 00:58:33;;;;;;;3.15;1.50;;;;;;;;;;4993718;28;20042;-64
2022/07/27 01:00:59;;;;;;;5.20;1.20;;;;;;;;;;4975659;28;20658;-64
2022/07/27 01:03:25;;;;;;;3.47;1.30;;;;;;;;;;4992857;28;20153;-65
2022/07/27 01:05:51;;;;;;;3.65;1.50;;;;;;;;;;4993549;28;20042;-64
2022/07/27 01:08:17;;;;;;;5.57;1.33;;;;;;;;;;4993443;28;20557;-65
2022/07/27 01:10:43;;;;;;;4.57;1.30;;;;;;;;;;4993090;28;20444;-65
2022/07/27 01:13:10;;;;;;;5.20;1.73;;;;;;;;;;4993326;28;20039;-64
2022/07/27 01:15:37;;;;;;;4.03;1.50;;;;;;;;;;4993144;28;20153;-65
2022/07/27 01:18:03;;;;;;;4.07;1.42;;;;;;;;;;4992815;28;20078;-65
2022/07/27 01:20:29;;;;;;;4.47;1.77;;;;;;;;;;4975766;28;20053;-65
2022/07/27 01:22:55;;;;;;;6.22;1.52;;;;;;;;;;4975409;28;20050;-65
2022/07/27 01:25:21;;;;;;;3.40;1.52;;;;;;;;;;4992730;28;20041;-65
2022/07/27 01:27:47;;;;;;;5.35;1.85;;;;;;;;;;4992953;28;20042;-65
2022/07/27 01:30:25;;;;;;;5.45;1.73;;;;;;;;;;4993093;28;20112;-65
2022/07/27 01:32:59;;;;;;;3.10;1.50;;;;;;;;;;4992585;28;20038;-65
2022/07/27 01:35:25;;;;;;;4.25;1.58;;;;;;;;;;4992742;28;20053;-64
2022/07/27 01:37:51;;;;;;;4.53;1.50;;;;;;;;;;4992718;28;20050;-64
2022/07/27 01:40:17;;;;;;;3.92;1.50;;;;;;;;;;4992383;28;20046;-64
2022/07/27 01:42:43;;;;;;;2.20;1.38;;;;;;;;;;4992668;28;20448;-65
2022/07/27 01:45:09;;;;;;;8.40;1.63;;;;;;;;;;4992559;28;20078;-64
2022/07/27 01:47:35;;;;;;;4.88;1.67;;;;;;;;;;4991971;28;20145;-65
2022/07/27 01:50:01;;;;;;;5.72;1.60;;;;;;;;;;4992744;28;20460;-64
2022/07/27 01:52:27;;;;;;;6.53;1.90;;;;;;;;;;4992540;28;20062;-64
2022/07/27 01:54:53;;;;;;;3.75;1.58;;;;;;;;;;4992197;28;20085;-65
2022/07/27 01:57:19;;;;;;;7.30;1.80;;;;;;;;;;4992356;28;20093;-65
2022/07/27 01:59:45;;;;;;;3.30;1.65;;;;;;;;;;4992374;28;20038;-65
2022/07/27 02:02:14;;;;;;;5.93;1.92;;;;;;;;;;4991522;28;20125;-65
2022/07/27 02:04:40;;;;;;;3.55;1.70;;;;;;;;;;4992330;28;20053;-65
2022/07/27 02:07:06;;;;;;;4.03;1.60;;;;;;;;;;4991984;28;20065;-65
2022/07/27 02:09:32;;;;;;;3.75;1.45;;;;;;;;;;4991966;28;20041;-65
2022/07/27 02:14:43;;;;;;;2.70;1.60;;;;;;;;;;4992267;28;20074;-64
2022/07/27 02:17:09;;;;;;;3.58;1.80;;;;;;;;;;4991579;28;20082;-64
2022/07/27 02:19:35;;;;;;;8.52;1.75;;;;;;;;;;4992334;28;20429;-64
2022/07/27 02:22:01;;;;;;;6.50;2.20;;;;;;;;;;4992212;28;20092;-64
2022/07/27 02:24:27;;;;;;;4.55;1.77;;;;;;;;;;4991433;28;20042;-64
2022/07/27 02:26:53;;;;;;;3.75;1.80;;;;;;;;;;4974338;28;20053;-64
2022/07/27 02:29:20;;;;;;;5.53;1.70;;;;;;;;;;4992165;28;20482;-64
2022/07/27 02:31:46;;;;;;;2.85;1.63;;;;;;;;;;4991860;28;20512;-64
2022/07/27 02:34:12;;;;;;;5.28;2.10;;;;;;;;;;4992144;28;20600;-65
2022/07/27 02:36:38;;;;;;;4.68;2.05;;;;;;;;;;4991973;28;20121;-64
2022/07/27 02:39:04;;;;;;;3.58;1.92;;;;;;;;;;4991348;28;20053;-64
2022/07/27 02:41:30;;;;;;;6.10;1.90;;;;;;;;;;4991610;28;20042;-64
2022/07/27 02:43:56;;;;;;;3.50;1.92;;;;;;;;;;4991941;28;20065;-64
2022/07/27 02:46:22;;;;;;;2.72;1.92;;;;;;;;;;4991404;28;20505;-65
2022/07/27 02:48:48;;;;;;;3.92;2.10;;;;;;;;;;4992069;28;20045;-64
2022/07/27 02:51:14;;;;;;;4.63;1.98;;;;;;;;;;4992040;28;20042;-64
2022/07/27 02:53:41;;;;;;;5.25;1.92;;;;;;;;;;4991474;28;20053;-64
2022/07/27 02:56:07;;;;;;;3.53;1.90;;;;;;;;;;4974225;28;20392;-64
2022/07/27 02:58:33;;;;;;;4.75;1.85;;;;;;;;;;4991927;28;20149;-64
2022/07/27 03:00:59;;;;;;;6.35;2.20;;;;;;;;;;4991500;28;20038;-64
2022/07/27 03:03:25;;;;;;;3.80;1.60;;;;;;;;;;4991673;28;20428;-64
2022/07/27 03:05:51;;;;;;;7.75;2.00;;;;;;;;;;4991509;28;20483;-64
2022/07/27 03:08:17;;;;;;;2.65;1.88;;;;;;;;;;4991776;28;20496;-64
2022/07/27 03:10:43;;;;;;;6.20;2.00;;;;;;;;;;4991321;28;20046;-65
2022/07/27 03:13:09;;;;;;;5.65;1.80;;;;;;;;;;4992523;28;20038;-64
2022/07/27 03:15:35;;;;;;;3.47;1.90;;;;;;;;;;4977956;28;20547;-64
2022/07/27 03:18:02;;;;;;;4.80;2.35;;;;;;;;;;4994979;28;20046;-64
2022/07/27 03:20:28;;;;;;;5.82;2.00;;;;;;;;;;4995425;28;20117;-64
2022/07/27 03:22:54;;;;;;;5.32;1.85;;;;;;;;;;4994954;28;20050;-64
2022/07/27 03:25:20;;;;;;;5.28;2.05;;;;;;;;;;4994803;28;20042;-64
2022/07/27 03:27:46;;;;;;;3.70;1.85;;;;;;;;;;4995163;28;20816;-64
2022/07/27 03:30:12;;;;;;;9.30;2.08;;;;;;;;;;4995426;28;20378;-64
2022/07/27 03:32:38;;;;;;;6.30;2.28;;;;;;;;;;4994880;28;20066;-64
2022/07/27 03:35:04;;;;;;;5.72;2.10;;;;;;;;;;4995273;28;20121;-64
2022/07/27 03:37:30;;;;;;;3.05;2.10;;;;;;;;;;4994766;28;20118;-64
2022/07/27 03:39:56;;;;;;;5.32;1.90;;;;;;;;;;4994659;28;20076;-64
2022/07/27 03:42:22;;;;;;;4.00;1.90;;;;;;;;;;4977290;28;20082;-64
2022/07/27 03:44:49;;;;;;;8.85;2.97;;;;;;;;;;4994798;28;20049;-64
2022/07/27 03:47:15;;;;;;;4.25;2.13;;;;;;;;;;4994216;28;20104;-65
2022/07/27 03:49:41;;;;;;;6.65;2.10;;;;;;;;;;4994880;28;20038;-65
2022/07/27 03:52:07;;;;;;;4.53;2.30;;;;;;;;;;4994653;28;20053;-65
2022/07/27 03:54:33;;;;;;;7.45;2.10;;;;;;;;;;4994515;28;20129;-64
2022/07/27 03:57:01;;;;;;;5.60;2.30;;;;;;;;;;4994580;28;20090;-64
2022/07/27 03:59:27;;;;;;;4.50;2.00;;;;;;;;;;4994700;28;20448;-64
2022/07/27 04:01:53;;;;;;;5.95;2.05;;;;;;;;;;4994258;28;20101;-64
2022/07/27 04:04:19;;;;;;;6.05;2.03;;;;;;;;;;4994491;28;20140;-64
2022/07/27 04:06:45;;;;;;;3.63;2.42;;;;;;;;;;4994554;28;20078;-64
2022/07/27 04:09:11;;;;;;;5.75;1.92;;;;;;;;;;4994147;28;20074;-64
2022/07/27 04:11:37;;;;;;;4.72;1.90;;;;;;;;;;4994549;28;20430;-64
2022/07/27 04:14:03;;;;;;;4.03;1.80;;;;;;;;;;4994430;28;20469;-64
2022/07/27 04:16:30;;;;;;;4.22;1.90;;;;;;;;;;4993933;28;20459;-65
2022/07/27 04:18:56;;;;;;;6.47;2.10;;;;;;;;;;4994330;28;20049;-65
2022/07/27 04:21:22;;;;;;;3.22;2.17;;;;;;;;;;4994033;28;20044;-65
2022/07/27 04:23:48;;;;;;;5.88;2.08;;;;;;;;;;4993636;28;20121;-65
2022/07/27 04:26:14;;;;;;;7.78;2.30;;;;;;;;;;4994100;28;20894;-65
2022/07/27 04:28:41;;;;;;;8.82;2.25;;;;;;;;;;4994330;28;20072;-65
2022/07/27 04:31:07;;;;;;;9.85;2.42;;;;;;;;;;4993839;28;20126;-64
2022/07/27 04:33:33;;;;;;;9.65;1.70;;;;;;;;;;4994124;28;20042;-64
2022/07/27 04:35:59;;;;;;;11.65;4.25;;;;;;;;;;4993838;28;20100;-64
2022/07/27 04:38:25;;;;;;;4.68;2.10;;;;;;;;;;4993604;28;20675;-64
2022/07/27 04:40:51;;;;;;;7.53;2.28;;;;;;;;;;4994163;28;20042;-64
2022/07/27 04:43:17;;;;;;;3.95;1.90;;;;;;;;;;4993507;28;20061;-65
2022/07/27 04:45:43;;;;;;;4.47;2.47;;;;;;;;;;4993422;28;20078;-65
2022/07/27 04:48:09;;;;;;;6.13;2.25;;;;;;;;;;4993253;28;20047;-65
2022/07/27 04:50:38;;;;;;;6.32;2.15;;;;;;;;;;4993703;28;20042;-65
2022/07/27 04:53:04;;;;;;;6.13;2.42;;;;;;;;;;4993102;28;20425;-65
2022/07/27 04:55:30;;;;;;;5.10;2.10;;;;;;;;;;4993685;28;20042;-65
2022/07/27 04:57:56;;;;;;;6.95;2.50;;;;;;;;;;4993490;28;20042;-65
2022/07/27 05:00:22;;;;;;;9.48;2.42;;;;;;;;;;4992936;28;20077;-65
2022/07/27 05:02:48;;;;;;;6.45;2.35;;;;;;;;;;4993538;28;20058;-65
2022/07/27 05:05:14;;;;;;;6.00;2.25;;;;;;;;;;4975659;28;20046;-65
2022/07/27 05:07:40;;;;;;;5.25;2.40;;;;;;;;;;4992556;28;20512;-65
2022/07/27 05:10:07;;;;;;;4.10;2.35;;;;;;;;;;4993417;28;20501;-65
2022/07/27 05:12:33;;;;;;;5.43;2.10;;;;;;;;;;4993359;28;20045;-65
2022/07/27 05:14:59;;;;;;;5.97;2.22;;;;;;;;;;4992778;28;20050;-64
2022/07/27 05:17:25;;;;;;;4.13;1.95;;;;;;;;;;4993182;28;20046;-64
2022/07/27 05:19:51;;;;;;;6.38;2.08;;;;;;;;;;4993263;28;20042;-64
2022/07/27 05:22:17;;;;;;;6.30;2.22;;;;;;;;;;4992561;28;20373;-65
2022/07/27 05:24:44;;;;;;;7.65;2.17;;;;;;;;;;4993195;28;20051;-65
2022/07/27 05:27:11;;;;;;;7.05;2.20;;;;;;;;;;4992509;28;20041;-65
2022/07/27 05:29:37;;;;;;;4.82;2.22;;;;;;;;;;4992325;28;20046;-65
2022/07/27 05:32:03;;;;;;;4.47;1.70;;;;;;;;;;4992986;28;20038;-65
2022/07/27 05:34:30;;;;;;;5.75;1.90;;;;;;;;;;4992849;28;20092;-65
2022/07/27 05:36:56;;;;;;;8.45;2.35;;;;;;;;;;4991702;28;20085;-65
2022/07/27 05:39:22;;;;;;;6.63;2.10;;;;;;;;;;4992685;28;20050;-65
2022/07/27 05:41:48;;;;;;;7.38;2.60;;;;;;;;;;4992494;28;20093;-65
2022/07/27 05:44:14;;;;;;;4.35;2.13;;;;;;;;;;4992380;28;20219;-65
2022/07/27 05:46:40;;;;;;;7.20;2.20;;;;;;;;;;4992181;28;20453;-64
2022/07/27 05:49:06;;;;;;;7.38;2.00;;;;;;;;;;4992721;28;20141;-65
2022/07/27 05:51:32;;;;;;;10.88;2.25;;;;;;;;;;4992111;28;20041;-65
2022/07/27 05:53:59;;;;;;;4.53;2.00;;;;;;;;;;4992368;28;20038;-65
2022/07/27 05:56:24;;;;;;;11.30;2.47;;;;;;;;;;4992238;28;20061;-65
2022/07/27 05:58:51;;;;;;;6.20;1.92;;;;;;;;;;4991806;28;20085;-64
2022/07/27 06:01:17;;;;;;;7.80;3.17;;;;;;;;;;4992283;28;20595;-64
2022/07/27 06:03:43;;;;;;;5.13;1.90;;;;;;;;;;4992468;28;20042;-64
2022/07/27 06:08:54;;;;;;;4.70;2.40;;;;;;;;;;4992285;28;20058;-64
2022/07/27 06:11:20;;;;;;;7.72;2.53;;;;;;;;;;4992175;28;20034;-64
2022/07/27 06:13:46;;;;;;;7.40;1.80;;;;;;;;;;4991826;28;20174;-64
2022/07/27 06:16:12;;;;;;;3.50;1.60;;;;;;;;;;4992045;28;20057;-64
2022/07/27 06:18:38;;;;;;;13.50;2.05;;;;;;;;;;4992289;28;20125;-64
2022/07/27 06:21:04;;;;;;;7.25;1.92;;;;;;;;;;4991580;28;20061;-64
2022/07/27 06:23:30;;;;;;;5.22;1.70;;;;;;;;;;4992270;28;20038;-64
2022/07/27 06:25:56;;;;;;;9.68;2.00;;;;;;;;;;4991837;28;20038;-64
2022/07/27 06:28:22;;;;;;;7.57;2.25;;;;;;;;;;4991525;28;20053;-64
2022/07/27 06:30:49;;;;;;;3.75;2.03;;;;;;;;;;4992111;28;20050;-64
2022/07/27 06:33:15;;;;;;;3.78;1.73;;;;;;;;;;4992125;28;20481;-64
2022/07/27 06:35:41;;;;;;;7.72;2.15;;;;;;;;;;4991693;28;20125;-64
2022/07/27 06:38:08;;;;;;;6.88;2.08;;;;;;;;;;4991469;28;20122;-64
2022/07/27 06:40:35;;;;;;;5.95;2.00;;;;;;;;;;4991882;28;20126;-64
2022/07/27 06:43:01;;;;;;;3.72;1.92;;;;;;;;;;4985545;28;20396;-64
2022/07/27 06:45:27;;;;;;;7.25;1.63;;;;;;;;;;4990436;28;20049;-64
2022/07/27 06:47:53;;;;;;;4.65;2.10;;;;;;;;;;4992780;28;20101;-64
2022/07/27 06:50:19;;;;;;;6.25;2.00;;;;;;;;;;4995708;28;20085;-64
2022/07/27 06:52:46;;;;;;;8.82;2.25;;;;;;;;;;4994685;28;20042;-64
2022/07/27 06:55:13;;;;;;;4.85;1.73;;;;;;;;;;4995763;28;20058;-64
2022/07/27 06:57:39;;;;;;;5.80;1.88;;;;;;;;;;4995477;28;20045;-64
2022/07/27 07:00:05;;;;;;;5.53;1.70;;;;;;;;;;4995523;28;20456;-64
2022/07/27 07:02:31;;;;;;;6.10;2.28;;;;;;;;;;4994725;28;20057;-64
2022/07/27 07:04:58;;;;;;;5.15;1.88;;;;;;;;;;4987106;28;20053;-64
2022/07/27 07:07:24;;;;;;;8.52;1.77;;;;;;;;;;5013698;28;20042;-64
2022/07/27 07:09:50;;;;;;;7.60;1.65;;;;;;;;;;5006384;28;20085;-64
2022/07/27 07:12:17;;;;;;;4.53;1.20;;;;;;;;;;4994528;28;20492;-64
2022/07/27 07:14:43;;;;;;;9.55;1.70;;;;;;;;;;4992841;28;20053;-64
2022/07/27 07:17:09;;;;;;;4.05;1.23;;;;;;;;;;4997008;28;20528;-64
2022/07/27 07:19:35;;;;;;;9.20;1.40;;;;;;;;;;5014440;28;20045;-64
2022/07/27 07:22:01;;;;;;;2.85;1.40;;;;;;;;;;5005506;28;20053;-65
2022/07/27 07:24:29;;;;;;;6.55;1.58;;;;;;;;;;4993926;28;20121;-65
2022/07/27 07:26:55;;;;;;;5.75;1.48;;;;;;;;;;4977736;28;20648;-64
2022/07/27 07:29:21;;;;;;;8.18;1.55;;;;;;;;;;4997503;28;20045;-65
2022/07/27 07:31:47;;;;;;;5.88;1.33;;;;;;;;;;4994299;28;20400;-65
2022/07/27 07:34:13;;;;;;;2.47;1.00;;;;;;;;;;4994211;28;20046;-65
2022/07/27 07:36:39;;;;;;;5.53;1.10;;;;;;;;;;4994281;28;20069;-64
2022/07/27 07:39:05;;;;;;;9.68;2.38;;;;;;;;;;4994054;28;20160;-64
2022/07/27 07:41:32;;;;;;;6.45;1.25;;;;;;;;;;4999095;28;20056;-65
2022/07/27 07:43:58;;;;;;;3.85;1.40;;;;;;;;;;4980387;28;20096;-63
2022/07/27 07:46:24;;;;;;;3.63;1.30;;;;;;;;;;5004924;28;20393;-63
2022/07/27 07:48:50;;;;;;;4.93;1.33;;;;;;;;;;5012524;28;20065;-63
2022/07/27 07:51:16;;;;;;;7.93;1.73;;;;;;;;;;5012812;28;20038;-63
2022/07/27 07:53:42;;;;;;;4.88;1.38;;;;;;;;;;5007492;28;20042;-63
2022/07/27 07:56:08;;;;;;;5.55;1.33;;;;;;;;;;4995068;28;20053;-64
2022/07/27 07:58:34;;;;;;;6.25;1.23;;;;;;;;;;4999957;28;20081;-63
2022/07/27 08:01:01;;;;;;;4.30;1.00;;;;;;;;;;4995101;28;20092;-64
2022/07/27 08:03:27;;;;;;;3.53;1.15;;;;;;;;;;4993694;28;20046;-63
2022/07/27 08:05:53;;;;;;;5.25;0.95;;;;;;;;;;4991712;28;20054;-63
2022/07/27 08:08:19;;;;;;;6.28;1.42;;;;;;;;;;4993385;28;20121;-63
2022/07/27 08:10:45;;;;;;;4.05;1.05;;;;;;;;;;4986813;28;20038;-63
2022/07/27 08:13:11;;;;;;;4.65;1.00;;;;;;;;;;4991475;28;20771;-63
2022/07/27 08:15:37;;;;;;;6.60;0.93;;;;;;;;;;4992820;28;20125;-64
2022/07/27 08:18:04;;;;;;;3.25;1.02;;;;;;;;;;4993803;28;20591;-64
2022/07/27 08:20:30;;;;;;;3.58;1.30;;;;;;;;;;4992915;28;20042;-64
2022/07/27 08:22:56;;;;;;;6.90;1.38;;;;;;;;;;4992607;28;20073;-64
2022/07/27 08:25:22;;;;;;;6.05;1.20;;;;;;;;;;4995393;28;20047;-64
2022/07/27 08:27:48;;;;;;;6.70;1.63;;;;;;;;;;4999703;28;20038;-64
2022/07/27 08:30:15;;;;;;;3.45;1.17;;;;;;;;;;4990577;28;20582;-64
2022/07/27 08:32:47;;;;;;;5.75;1.35;;;;;;;;;;4992315;28;20039;-64
2022/07/27 08:35:13;;;;;;;;;;;;;;;;;;4992857;28;20042;-64
2022/07/27 08:37:39;;;;;;;9.20;1.50;;;;;;;;;;4998235;28;20004;-63
2022/07/27 08:40:05;;;;;;;5.00;1.30;;;;;;;;;;4998662;28;20053;-64
2022/07/27 08:42:31;;;;;;;5.40;1.42;;;;;;;;;;4987743;28;20054;-64
2022/07/27 08:44:57;;;;;;;5.32;1.38;;;;;;;;;;4999321;28;20038;-64
2022/07/27 08:47:24;;;;;;;2.67;1.13;;;;;;;;;;5011562;28;20177;-64
2022/07/27 08:49:50;;;;;;;4.10;1.10;;;;;;;;;;5000827;28;20050;-64
2022/07/27 08:52:16;;;;;;;6.60;1.05;;;;;;;;;;4992363;28;20045;-64
2022/07/27 08:54:42;;;;;;;4.47;1.05;;;;;;;;;;4991646;28;20053;-64
2022/07/27 08:57:09;;;;;;;3.72;1.00;;;;;;;;;;4992068;28;20050;-64
2022/07/27 08:59:35;;;;;;;5.18;1.20;;;;;;;;;;4992311;28;20193;-64
2022/07/27 09:02:01;;;;;;;6.82;1.38;;;;;;;;;;4973621;28;20046;-64
2022/07/27 09:04:28;;;;;;;4.20;0.93;;;;;;;;;;4991908;28;20156;-64
2022/07/27 09:06:54;;;;;;;4.90;1.77;;;;;;;;;;5005276;28;20045;-64
2022/07/27 09:09:21;;;;;;;4.65;1.02;;;;;;;;;;5002069;28;20484;-64
2022/07/27 09:12:13;;;;;;;3.67;1.15;;;;;;;;;;4972943;28;20192;-64
2022/07/27 09:14:40;;;;;;;4.75;1.08;;;;;;;;;;4966425;28;20061;-64
2022/07/27 09:17:38;;;;;;;4.97;1.20;;;;;;;;;;4991593;28;20133;-65
2022/07/27 09:20:06;;;;;;;12.57;1.48;;;;;;;;;;4931567;28;20448;-64
2022/07/27 09:22:46;;;;;;;5.90;1.20;;;;;;;;;;4994251;28;20451;-64
2022/07/27 09:25:16;;;;;;;3.00;0.90;;;;;;;;;;4997567;28;20042;-64
2022/07/27 09:27:44;;;;;;;4.20;1.05;;;;;;;;;;4992009;28;20089;-64
2022/07/27 09:30:12;;;;;;;6.78;1.10;;;;;;;;;;4991185;28;20046;-64
2022/07/27 09:32:38;;;;;;;3.45;1.13;;;;;;;;;;4990815;28;20053;-64
2022/07/27 09:35:21;;;;;;;5.18;1.10;;;;;;;;;;4990675;28;20050;-64
2022/07/27 09:37:47;;;;;;;4.07;1.02;;;;;;;;;;4992569;28;20034;-64
2022/07/27 09:40:14;;;;;;;4.45;0.90;;;;;;;;;;4991285;28;20393;-65
2022/07/27 09:42:40;;;;;;;6.32;1.25;;;;;;;;;;4990623;28;20038;-64
2022/07/27 09:45:27;;;;;;;6.88;1.10;;;;;;;;;;4991468;28;20539;-64
2022/07/27 09:47:53;;;;;;;5.40;0.93;;;;;;;;;;4991453;28;20054;-64
2022/07/27 09:50:26;;;;;;;4.95;1.20;;;;;;;;;;4991277;28;20049;-64
2022/07/27 09:52:52;;;;;;;4.30;1.00;;;;;;;;;;4987106;28;20092;-64
2022/07/27 09:55:21;;;;;;;3.20;0.90;;;;;;;;;;4990178;28;20664;-64
2022/07/27 09:57:54;;;;;;;3.72;0.70;;;;;;;;;;4990220;28;20049;-64
2022/07/27 10:00:20;;;;;;;3.13;1.23;;;;;;;;;;4991653;28;20042;-64
2022/07/27 10:02:48;;;;;;;3.15;0.90;;;;;;;;;;4996990;28;20041;-64
2022/07/27 10:05:18;;;;;;;8.40;1.25;;;;;;;;;;4993005;28;20053;-64
2022/07/27 10:07:44;;;;;;;13.30;2.03;;;;;;;;;;4993044;28;20058;-64
2022/07/27 10:10:12;;;;;;;9.10;2.35;;;;;;;;;;4990902;28;20038;-64
2022/07/27 10:12:38;;;;;;;7.18;1.00;;;;;;;;;;4987844;28;20057;-64
2022/07/27 10:15:04;;;;;;;2.65;1.05;;;;;;;;;;4993619;28;20045;-64
2022/07/27 10:17:30;;;;;;;3.25;0.85;;;;;;;;;;4989086;28;20646;-64
2022/07/27 10:19:57;;;;;;;5.28;1.30;;;;;;;;;;5004114;28;20043;-64
2022/07/27 10:22:42;;;;;;;3.53;0.95;;;;;;;;;;4988191;28;20185;-64
2022/07/27 10:25:08;;;;;;;5.22;1.38;;;;;;;;;;4985008;28;20038;-64
2022/07/27 10:27:34;;;;;;;4.20;1.00;;;;;;;;;;5006866;28;20057;-64
2022/07/27 10:30:03;;;;;;;3.50;0.80;;;;;;;;;;5007563;28;20042;-64
2022/07/27 10:32:33;;;;;;;3.85;1.02;;;;;;;;;;5004562;28;20034;-64
2022/07/27 10:35:02;;;;;;;5.10;1.00;;;;;;;;;;5009235;28;20042;-64
2022/07/27 10:37:29;;;;;;;3.67;1.10;;;;;;;;;;5009698;28;20095;-64
2022/07/27 10:42:42;;;;;;;2.63;0.80;;;;;;;;;;4995867;28;20043;-63
2022/07/27 10:45:12;;;;;;;6.22;0.80;;;;;;;;;;4992472;28;20105;-64
2022/07/27 10:47:41;;;;;;;2.50;0.77;;;;;;;;;;4988278;28;20054;-64
2022/07/27 10:50:18;;;;;;;4.03;0.90;;;;;;;;;;4999738;28;20049;-64
2022/07/27 10:52:48;;;;;;;5.03;0.90;;;;;;;;;;4989346;28;20046;-64
2022/07/27 10:55:34;;;;;;;8.27;1.00;;;;;;;;;;4989608;28;20077;-64
2022/07/27 10:58:02;;;;;;;3.50;0.80;;;;;;;;;;4998793;28;20049;-64
2022/07/27 11:00:47;;;;;;;4.43;1.05;;;;;;;;;;5010700;28;20078;-64
2022/07/27 11:03:27;;;;;;;2.40;0.82;;;;;;;;;;4995945;28;20060;-64
2022/07/27 11:05:56;;;;;;;5.13;0.82;;;;;;;;;;5008464;28;20081;-64
2022/07/27 11:08:25;;;;;;;7.03;1.20;;;;;;;;;;5010195;28;20045;-64
2022/07/27 11:10:51;;;;;;;4.90;0.90;;;;;;;;;;5010033;28;20164;-64
2022/07/27 11:13:18;;;;;;;4.40;1.00;;;;;;;;;;5010682;28;20485;-65
2022/07/27 11:15:54;;;;;;;3.55;0.98;;;;;;;;;;4992452;28;20041;-65
2022/07/27 11:18:40;;;;;;;5.68;0.88;;;;;;;;;;4992445;28;20052;-64
2022/07/27 11:21:25;;;;;;;4.10;0.80;;;;;;;;;;4998983;28;20042;-64
2022/07/27 11:23:52;;;;;;;3.45;0.73;;;;;;;;;;4992375;28;20713;-64
2022/07/27 11:26:19;;;;;;;2.38;0.80;;;;;;;;;;4999143;28;20046;-64
2022/07/27 11:28:45;;;;;;;5.28;1.17;;;;;;;;;;4991090;28;20092;-64
2022/07/27 11:31:12;;;;;;;3.58;0.90;;;;;;;;;;4991272;28;20042;-64
2022/07/27 11:33:58;;;;;;;4.53;0.95;;;;;;;;;;4990103;28;20039;-64
2022/07/27 11:36:36;;;;;;;4.55;1.05;;;;;;;;;;4993789;28;20073;-64
2022/07/27 11:39:03;;;;;;;3.88;0.90;;;;;;;;;;4989660;28;20041;-64
2022/07/27 11:41:30;;;;;;;3.40;0.70;;;;;;;;;;4992807;28;20486;-64
2022/07/27 11:44:01;;;;;;;2.17;1.00;;;;;;;;;;4992288;28;20096;-64
2022/07/27 11:46:32;;;;;;;5.33;1.13;;;;;;;;;;4961063;28;20109;-64
2022/07/27 11:48:59;;;;;;;4.45;0.70;;;;;;;;;;4972009;28;20298;-64
2022/07/27 11:51:25;;;;;;;2.88;0.70;;;;;;;;;;4976025;28;20530;-64
2022/07/27 11:54:10;;;;;;;4.78;1.00;;;;;;;;;;4994103;28;20034;-64
2022/07/27 11:56:38;;;;;;;4.72;0.70;;;;;;;;;;4990527;28;20054;-64
2022/07/27 11:59:16;;;;;;;2.92;0.98;;;;;;;;;;4993651;28;20291;-64
2022/07/27 12:01:47;;;;;;;2.67;0.77;;;;;;;;;;4993459;28;20141;-64
2022/07/27 12:04:17;;;;;;;1.90;0.60;;;;;;;;;;4973989;28;20133;-64
2022/07/27 12:06:43;;;;;;;2.72;0.70;;;;;;;;;;4993487;28;20096;-64
2022/07/27 12:09:12;;;;;;;6.80;1.10;;;;;;;;;;4990793;28;20050;-64
2022/07/27 12:11:45;;;;;;;3.78;0.75;;;;;;;;;;5001742;28;20623;-64
2022/07/27 12:14:11;;;;;;;3.60;1.00;;;;;;;;;;5012483;28;20113;-64
2022/07/27 12:16:37;;;;;;;3.33;0.70;;;;;;;;;;4999457;28;20042;-64
2022/07/27 12:19:04;;;;;;;2.15;0.93;;;;;;;;;;4990812;28;20068;-64
2022/07/27 12:21:30;;;;;;;6.57;0.90;;;;;;;;;;4993328;28;20527;-64
2022/07/27 12:23:57;;;;;;;3.58;0.75;;;;;;;;;;4974444;28;20058;-64
2022/07/27 12:26:26;;;;;;;1.38;0.82;;;;;;;;;;4991440;28;20038;-64
2022/07/27 12:29:05;;;;;;;2.38;1.00;;;;;;;;;;4992851;28;20035;-64
2022/07/27 12:31:31;;;;;;;1.33;0.63;;;;;;;;;;4993181;28;20049;-64
2022/07/27 12:33:58;;;;;;;1.25;0.65;;;;;;;;;;4992825;28;20038;-64
2022/07/27 12:36:26;;;;;;;0.85;0.43;;;;;;;;;;4991781;28;20046;-64
2022/07/27 12:38:52;;;;;;;2.30;0.50;;;;;;;;;;4993526;28;20440;-64
2022/07/27 12:41:29;;;;;;;2.00;0.43;;;;;;;;;;4992031;28;20047;-64
2022/07/27 12:44:05;;;;;;;0.82;0.40;;;;;;;;;;4991671;28;20042;-64
2022/07/27 12:46:31;;;;;;;2.60;0.50;;;;;;;;;;4990342;28;20059;-64
2022/07/27 12:48:57;;;;;;;2.80;0.50;;;;;;;;;;4992782;28;20103;-64
2022/07/27 12:51:23;;;;;;;3.25;1.33;;;;;;;;;;4990896;28;20080;-64
2022/07/27 12:53:49;;;;;;;1.58;0.52;;;;;;;;;;4991224;28;20081;-65
2022/07/27 12:56:15;;;;;;;1.02;0.50;;;;;;;;;;4993385;28;20080;-64
2022/07/27 12:58:57;;;;;;;3.58;0.88;;;;;;;;;;4993007;28;20049;-64
2022/07/27 13:01:23;;;;;;;2.88;0.60;;;;;;;;;;4990985;28;20108;-65
2022/07/27 13:03:49;;;;;;;2.25;0.82;;;;;;;;;;4991389;28;20049;-64
2022/07/27 13:06:16;;;;;;;4.28;0.70;;;;;;;;;;4992303;28;20066;-64
2022/07/27 13:08:42;;;;;;;4.78;0.60;;;;;;;;;;4975192;28;20431;-64
2022/07/27 13:11:08;;;;;;;4.95;0.93;;;;;;;;;;4992672;28;20042;-64
2022/07/27 13:13:34;;;;;;;3.30;1.00;;;;;;;;;;4992639;28;20039;-64
2022/07/27 13:16:00;;;;;;;4.35;0.65;;;;;;;;;;4991524;28;20045;-64
2022/07/27 13:18:26;;;;;;;4.63;0.73;;;;;;;;;;4992882;28;20046;-64
2022/07/27 13:20:52;;;;;;;2.80;0.75;;;;;;;;;;4992337;28;20054;-64
2022/07/27 13:23:18;;;;;;;1.42;0.32;;;;;;;;;;4992249;28;20054;-64
2022/07/27 13:25:44;;;;;;;1.58;0.45;;;;;;;;;;4991952;28;20045;-64
2022/07/27 13:28:10;;;;;;;1.48;0.50;;;;;;;;;;4992238;28;20108;-64
2022/07/27 13:30:37;;;;;;;2.75;0.60;;;;;;;;;;4974341;28;20461;-64
2022/07/27 13:33:03;;;;;;;4.03;0.88;;;;;;;;;;4992266;28;20077;-64
2022/07/27 13:35:29;;;;;;;2.83;0.90;;;;;;;;;;4975162;28;20046;-64
2022/07/27 13:37:55;;;;;;;1.80;0.43;;;;;;;;;;4992340;28;20517;-64
2022/07/27 13:40:21;;;;;;;1.45;0.52;;;;;;;;;;4992368;28;20046;-64
2022/07/27 13:42:47;;;;;;;1.42;0.65;;;;;;;;;;4992219;28;20042;-64
2022/07/27 13:45:13;;;;;;;4.95;0.90;;;;;;;;;;4991691;28;20417;-64
2022/07/27 13:47:40;;;;;;;3.63;0.63;;;;;;;;;;4992112;28;20054;-64
2022/07/27 13:50:10;;;;;;;5.40;0.70;;;;;;;;;;4992588;28;20042;-64
2022/07/27 13:52:36;;;;;;;4.85;0.70;;;;;;;;;;4974204;28;20560;-64
2022/07/27 13:55:02;;;;;;;1.25;0.60;;;;;;;;;;4992368;28;20367;-64
2022/07/27 13:57:28;;;;;;;7.10;0.75;;;;;;;;;;4991270;28;20050;-64
2022/07/27 13:59:54;;;;;;;2.30;0.80;;;;;;;;;;4991973;28;20133;-64
2022/07/27 14:02:20;;;;;;;3.50;1.15;;;;;;;;;;4991631;28;20046;-64
2022/07/27 14:04:47;;;;;;;5.22;0.63;;;;;;;;;;4991592;28;20046;-64
2022/07/27 14:07:13;;;;;;;2.65;0.70;;;;;;;;;;4974262;28;20046;-64
2022/07/27 14:12:23;;;;;;;2.95;1.05;;;;;;;;;;4991861;28;20497;-64
2022/07/27 14:14:49;;;;;;;2.50;0.70;;;;;;;;;;4991514;28;20050;-64
2022/07/27 14:17:16;;;;;;;6.18;0.88;;;;;;;;;;4974128;28;20078;-64
2022/07/27 14:19:42;;;;;;;5.78;0.80;;;;;;;;;;4992020;28;20134;-64
2022/07/27 14:22:11;;;;;;;5.53;0.77;;;;;;;;;;4991129;28;20475;-64
2022/07/27 14:24:37;;;;;;;3.45;0.88;;;;;;;;;;4991401;28;20049;-64
2022/07/27 14:27:04;;;;;;;4.68;0.90;;;;;;;;;;4991147;28;20042;-64
2022/07/27 14:29:32;;;;;;;3.80;0.70;;;;;;;;;;4991127;28;20042;-64
2022/07/27 14:31:58;;;;;;;2.65;0.75;;;;;;;;;;4974726;28;20524;-64
2022/07/27 14:34:25;;;;;;;4.30;0.90;;;;;;;;;;4991328;28;20110;-64
2022/07/27 14:36:51;;;;;;;4.68;0.90;;;;;;;;;;4991393;28;20081;-64
2022/07/27 14:39:17;;;;;;;4.80;0.85;;;;;;;;;;4991778;28;20081;-64
2022/07/27 14:41:43;;;;;;;2.90;0.70;;;;;;;;;;4991685;28;20042;-63
2022/07/27 14:44:09;;;;;;;3.75;0.80;;;;;;;;;;4973590;28;20080;-64
2022/07/27 14:46:35;;;;;;;3.33;1.00;;;;;;;;;;4991166;28;20054;-64
2022/07/27 14:49:01;;;;;;;3.80;0.77;;;;;;;;;;4979353;28;20063;-63
2022/07/27 14:51:27;;;;;;;4.97;0.70;;;;;;;;;;5011181;28;20045;-64
2022/07/27 14:53:53;;;;;;;4.88;0.80;;;;;;;;;;4998871;28;20100;-64
2022/07/27 14:56:19;;;;;;;4.50;0.80;;;;;;;;;;4991705;28;20067;-64